ESNZ

Östersund Airport

Östersund, Sweden
METAR ESNZ 181320Z 29013KT 9999 FEW026 M06/M08 Q0999
Observed Flight Rules
Jan-18 @ 13:20 UTC (27 minutes ago) Visual Flight Rules
Wind Visibility Clouds
290° at 13 knots 10,000+ meters
  • Few at 2,600' AGL
Temperatures Readings
Current -6°C / 21°F
Dewpoint -8°C / 18°F
Humidity 86%
Altimeter 29.5" Hg
Pressure 998.92 hPa
Elevation 370
METAR ESNZ 181320Z 29013KT 9999 FEW026 M06/M08 Q0999
Observed Flight Rules
Jan-18 @ 13:20 UTC
(27 minutes ago)
VFR
Wind Visibility
290° at 13 knots 10,000+ meters
Clouds
  • Few at 2,600' AGL
Temperature Dewpoint
-6°C / 21°F -8°C / 18°F
Humidity Altimeter Pressure
86% 29.5" Hg 998.92 hPa